createdAt,value
2023-02-16T00:00:26.951Z,100584.12
2023-02-16T00:02:57.164Z,100579.91
2023-02-16T00:05:32.790Z,100586.75
2023-02-16T00:08:01.118Z,100582.38
2023-02-16T00:10:32.913Z,100582.34
2023-02-16T00:13:19.106Z,100577.97
2023-02-16T00:15:46.502Z,100579.63
2023-02-16T00:18:21.673Z,100577.03
2023-02-16T00:20:49.316Z,100575.44
2023-02-16T00:23:16.860Z,100575.41
2023-02-16T00:25:43.911Z,100576.19
2023-02-16T00:28:16.058Z,100578.69
2023-02-16T00:30:45.193Z,100576.09
2023-02-16T00:33:19.632Z,100564.78
2023-02-16T00:35:47.593Z,100566.47
2023-02-16T00:38:16.494Z,100566.47
2023-02-16T00:40:44.001Z,100563.88
2023-02-16T00:43:26.160Z,100564.72
2023-02-16T00:45:54.029Z,100562.97
2023-02-16T00:48:21.711Z,100563.78
2023-02-16T00:50:49.014Z,100560.28
2023-02-16T00:53:17.731Z,100557.66
2023-02-16T00:55:45.112Z,100554.16
2023-02-16T00:58:20.762Z,100552.50
2023-02-16T01:00:52.380Z,100552.47
2023-02-16T01:03:24.083Z,100548.09
2023-02-16T01:06:11.435Z,100551.53
2023-02-16T01:08:56.908Z,100545.41
2023-02-16T01:11:25.694Z,100537.66
2023-02-16T01:13:55.133Z,100546.25
2023-02-16T01:16:25.845Z,100541.97
2023-02-16T01:18:54.014Z,100541.09
2023-02-16T01:21:23.874Z,100537.63
2023-02-16T01:23:50.870Z,100538.41
2023-02-16T01:26:20.379Z,100533.25
2023-02-16T01:28:48.240Z,100535.03
2023-02-16T01:31:16.796Z,100532.44
2023-02-16T01:33:44.579Z,100539.34
2023-02-16T01:36:39.720Z,100535.03
2023-02-16T01:39:11.523Z,100531.56
2023-02-16T01:41:53.436Z,100529.88
2023-02-16T01:44:29.656Z,100524.69
2023-02-16T01:47:24.301Z,100531.66
2023-02-16T01:49:51.548Z,100517.84
2023-02-16T01:52:30.737Z,100519.59
2023-02-16T01:55:07.966Z,100517.09
2023-02-16T01:57:35.084Z,100514.44
2023-02-16T02:00:08.826Z,100508.41
2023-02-16T02:02:50.845Z,100511.84
2023-02-16T02:05:35.589Z,100513.72
2023-02-16T02:08:18.371Z,100514.63
2023-02-16T02:10:54.746Z,100502.69
2023-02-16T02:13:34.363Z,100500.97
2023-02-16T02:16:04.011Z,100499.25
2023-02-16T02:18:33.270Z,100496.62
2023-02-16T02:21:46.997Z,100497.41
2023-02-16T02:24:32.679Z,100486.12
2023-02-16T02:27:24.176Z,100492.13
2023-02-16T02:30:18.771Z,100484.37
2023-02-16T02:33:10.465Z,100487.84
2023-02-16T02:35:45.079Z,100489.50
2023-02-16T02:38:50.174Z,100490.28
2023-02-16T02:41:48.337Z,100494.66
2023-02-16T02:44:20.695Z,100487.66
2023-02-16T02:46:49.429Z,100489.28
2023-02-16T02:49:17.681Z,100478.03
2023-02-16T02:51:44.741Z,100472.84
2023-02-16T02:54:39.330Z,100483.22
2023-02-16T02:57:34.997Z,100483.22
2023-02-16T03:00:51.708Z,100475.44
2023-02-16T03:03:32.791Z,100481.50
2023-02-16T03:06:08.112Z,100475.44
2023-02-16T03:08:38.730Z,100476.25
2023-02-16T03:11:34.169Z,100473.72
2023-02-16T03:14:11.708Z,100478.06
2023-02-16T03:16:44.599Z,100479.72
2023-02-16T03:19:34.647Z,100474.53
2023-02-16T03:22:21.470Z,100475.41
2023-02-16T03:25:07.276Z,100477.97
2023-02-16T03:27:58.121Z,100467.59
2023-02-16T03:30:27.055Z,100462.41
2023-02-16T03:32:54.762Z,100464.09
2023-02-16T03:35:22.018Z,100466.72
2023-02-16T03:37:49.273Z,100465.03
2023-02-16T03:40:30.017Z,100466.72
2023-02-16T03:43:02.987Z,100466.72
2023-02-16T03:45:32.210Z,100471.09
2023-02-16T03:47:59.234Z,100465.03
2023-02-16T03:50:27.169Z,100474.53
2023-02-16T03:53:06.596Z,100463.34
2023-02-16T03:55:39.446Z,100464.22
2023-02-16T03:58:09.324Z,100462.50
2023-02-16T04:00:36.643Z,100459.06
2023-02-16T04:03:04.609Z,100457.34
2023-02-16T04:05:33.282Z,100453.84
2023-02-16T04:08:00.903Z,100452.12
2023-02-16T04:10:28.458Z,100453.00
2023-02-16T04:12:55.574Z,100451.31
2023-02-16T04:15:26.167Z,100453.84
2023-02-16T04:17:54.108Z,100455.53
2023-02-16T04:20:24.353Z,100446.03
2023-02-16T04:22:51.451Z,100449.50
2023-02-16T04:25:19.644Z,100455.50
2023-02-16T04:27:48.881Z,100456.38
2023-02-16T04:30:19.174Z,100459.03
2023-02-16T04:32:46.517Z,100456.38
2023-02-16T04:35:13.852Z,100462.31
2023-02-16T04:37:41.012Z,100458.00
2023-02-16T04:40:15.085Z,100462.28
2023-02-16T04:42:43.572Z,100466.63
2023-02-16T04:45:12.387Z,100460.75
2023-02-16T04:47:39.962Z,100458.28
2023-02-16T04:50:07.447Z,100460.09
2023-02-16T04:52:34.795Z,100466.03
2023-02-16T04:55:01.831Z,100457.34
2023-02-16T04:57:28.894Z,100457.44
2023-02-16T04:59:56.262Z,100465.16
2023-02-16T05:02:23.238Z,100464.25
2023-02-16T05:04:50.288Z,100459.94
2023-02-16T05:07:17.665Z,100453.94
2023-02-16T05:09:44.661Z,100447.06
2023-02-16T05:12:29.897Z,100454.84
2023-02-16T05:14:57.296Z,100453.97
2023-02-16T05:17:25.812Z,100452.31
2023-02-16T05:19:58.587Z,100456.69
2023-02-16T05:22:28.625Z,100452.44
2023-02-16T05:24:55.649Z,100451.66
2023-02-16T05:27:28.156Z,100449.12
2023-02-16T05:29:56.204Z,100443.13
2023-02-16T05:32:23.616Z,100448.34
2023-02-16T05:34:50.780Z,100444.91
2023-02-16T05:37:18.679Z,100443.22
2023-02-16T05:39:46.064Z,100442.41
2023-02-16T05:42:13.350Z,100436.34
2023-02-16T05:44:40.692Z,100445.81
2023-02-16T05:47:07.913Z,100448.53
2023-02-16T05:49:35.038Z,100447.66
2023-02-16T05:52:02.474Z,100448.47
2023-02-16T05:54:29.623Z,100446.72
2023-02-16T05:56:56.734Z,100449.28
2023-02-16T05:59:24.240Z,100443.28
2023-02-16T06:01:52.487Z,100450.28
2023-02-16T06:04:21.255Z,100444.28
2023-02-16T06:06:48.916Z,100448.66
2023-02-16T06:09:16.216Z,100451.22
2023-02-16T06:11:43.657Z,100443.41
2023-02-16T06:14:18.943Z,100444.16
2023-02-16T06:16:49.361Z,100446.72
2023-02-16T06:19:18.717Z,100450.34
2023-02-16T06:21:46.404Z,100456.34
2023-02-16T06:24:14.909Z,100453.78
2023-02-16T06:26:42.163Z,100450.41
2023-02-16T06:29:09.714Z,100448.78
2023-02-16T06:31:37.549Z,100450.66
2023-02-16T06:34:07.539Z,100455.09
2023-02-16T06:36:34.919Z,100450.06
2023-02-16T06:39:02.381Z,100455.41
2023-02-16T06:41:33.650Z,100454.63
2023-02-16T06:44:02.410Z,100446.06
2023-02-16T06:46:29.966Z,100441.81
2023-02-16T06:48:57.129Z,100436.66
2023-02-16T06:51:24.481Z,100441.91
2023-02-16T06:53:51.945Z,100441.06
2023-02-16T06:56:19.105Z,100435.84
2023-02-16T06:58:46.238Z,100437.53
2023-02-16T07:01:13.772Z,100441.78
2023-02-16T07:03:41.017Z,100426.06
2023-02-16T07:06:08.154Z,100435.53
2023-02-16T07:08:35.906Z,100431.94
2023-02-16T07:11:03.792Z,100426.47
2023-02-16T07:13:31.341Z,100421.91
2023-02-16T07:15:58.768Z,100424.25
2023-02-16T07:18:26.161Z,100424.81
2023-02-16T07:20:53.754Z,100428.19
2023-02-16T07:23:21.500Z,100433.34
2023-02-16T07:25:48.870Z,100438.62
2023-02-16T07:28:16.398Z,100436.87
2023-02-16T07:30:43.906Z,100439.50
2023-02-16T07:33:11.373Z,100434.38
2023-02-16T07:35:38.665Z,100430.97
2023-02-16T07:38:06.128Z,100433.66
2023-02-16T07:40:33.846Z,100425.00
2023-02-16T07:43:03.076Z,100428.59
2023-02-16T07:45:33.045Z,100427.72
2023-02-16T07:48:01.121Z,100429.50
2023-02-16T07:50:28.330Z,100419.03
2023-02-16T07:52:55.731Z,100428.62
2023-02-16T07:55:22.815Z,100424.19
2023-02-16T07:57:54.624Z,100430.16
2023-02-16T08:00:22.500Z,100429.06
2023-02-16T08:02:50.136Z,100428.09
2023-02-16T08:05:17.749Z,100425.34
2023-02-16T08:07:46.629Z,100425.31
2023-02-16T08:10:15.719Z,100427.81
2023-02-16T08:12:43.208Z,100431.16
2023-02-16T08:15:11.789Z,100432.69
2023-02-16T08:17:39.177Z,100437.84
2023-02-16T08:20:07.793Z,100432.56
2023-02-16T08:22:35.211Z,100431.28
2023-02-16T08:25:02.659Z,100432.78
2023-02-16T08:27:29.884Z,100440.37
2023-02-16T08:29:56.970Z,100437.41
2023-02-16T08:32:24.457Z,100438.91
2023-02-16T08:34:52.307Z,100437.03
2023-02-16T08:37:19.381Z,100437.00
2023-02-16T08:39:46.822Z,100433.66
2023-02-16T08:42:13.943Z,100445.84
2023-02-16T08:44:42.398Z,100452.03
2023-02-16T08:47:11.699Z,100450.25
2023-02-16T08:49:39.499Z,100447.03
2023-02-16T08:52:06.778Z,100445.41
2023-02-16T08:54:34.611Z,100444.31
2023-02-16T08:57:05.963Z,100443.66
2023-02-16T08:59:35.929Z,100441.66
2023-02-16T09:02:03.057Z,100447.94
2023-02-16T09:04:30.210Z,100440.13
2023-02-16T09:06:58.458Z,100439.81
2023-02-16T09:09:26.627Z,100431.00
2023-02-16T09:11:53.830Z,100434.09
2023-02-16T09:14:23.143Z,100439.19
2023-02-16T09:16:50.541Z,100439.03
2023-02-16T09:19:21.543Z,100437.13
2023-02-16T09:21:50.941Z,100442.12
2023-02-16T09:24:18.275Z,100440.56
2023-02-16T09:26:45.284Z,100445.88
2023-02-16T09:29:13.955Z,100444.50
2023-02-16T09:31:42.563Z,100444.37
2023-02-16T09:34:21.785Z,100447.75
2023-02-16T09:36:50.345Z,100440.75
2023-02-16T09:39:18.708Z,100449.34
2023-02-16T09:42:09.803Z,100440.13
2023-02-16T09:45:03.653Z,100442.66
2023-02-16T09:47:37.186Z,100443.25
2023-02-16T09:50:27.766Z,100434.56
2023-02-16T09:53:00.900Z,100438.88
2023-02-16T09:56:03.492Z,100442.69
2023-02-16T09:58:42.545Z,100448.91
2023-02-16T10:01:31.704Z,100440.44
2023-02-16T10:04:24.316Z,100445.31
2023-02-16T10:07:20.451Z,100433.81
2023-02-16T10:09:51.427Z,100440.06
2023-02-16T10:12:25.175Z,100445.88
2023-02-16T10:14:58.116Z,100448.94
2023-02-16T10:17:31.510Z,100440.75
2023-02-16T10:20:13.228Z,100432.63
2023-02-16T10:22:44.456Z,100436.63
2023-02-16T10:25:18.940Z,100432.25
2023-02-16T10:27:49.108Z,100438.41
2023-02-16T10:30:22.114Z,100435.72
2023-02-16T10:32:56.859Z,100436.53
2023-02-16T10:35:57.606Z,100439.38
2023-02-16T10:38:32.007Z,100434.34
2023-02-16T10:41:04.462Z,100430.56
2023-02-16T10:43:53.438Z,100424.50
2023-02-16T10:46:25.915Z,100417.47
2023-02-16T10:48:54.994Z,100417.47
2023-02-16T10:51:28.207Z,100414.88
2023-02-16T10:54:06.702Z,100412.22
2023-02-16T10:56:39.965Z,100407.09
2023-02-16T10:59:38.373Z,100411.56
2023-02-16T11:02:19.830Z,100409.00
2023-02-16T11:04:50.071Z,100409.19
2023-02-16T11:07:20.900Z,100401.91
2023-02-16T11:09:57.298Z,100407.16
2023-02-16T11:12:38.392Z,100398.34
2023-02-16T11:15:21.836Z,100399.84
2023-02-16T11:17:50.928Z,100396.94
2023-02-16T11:20:28.770Z,100399.59
2023-02-16T11:23:23.072Z,100392.69
2023-02-16T11:25:58.203Z,100390.66
2023-02-16T11:28:44.755Z,100387.28
2023-02-16T11:31:36.391Z,100385.25
2023-02-16T11:34:07.656Z,100377.47
2023-02-16T11:36:39.472Z,100369.63
2023-02-16T11:39:21.955Z,100365.72
2023-02-16T11:42:02.848Z,100360.06
2023-02-16T11:44:30.200Z,100360.16
2023-02-16T11:46:59.400Z,100357.09
2023-02-16T11:49:35.730Z,100358.81
2023-02-16T11:52:24.265Z,100346.69
2023-02-16T11:54:54.034Z,100349.72
2023-02-16T11:57:28.487Z,100348.75
2023-02-16T11:59:56.427Z,100346.13
2023-02-16T12:02:45.138Z,100343.78
2023-02-16T12:06:03.418Z,100343.56
2023-02-16T12:08:49.347Z,100336.53
2023-02-16T12:11:30.437Z,100328.41
2023-02-16T12:14:12.492Z,100331.81
2023-02-16T12:17:05.210Z,100320.31
2023-02-16T12:19:45.519Z,100311.53
2023-02-16T12:22:24.469Z,100310.38
2023-02-16T12:25:07.867Z,100309.28
2023-02-16T12:27:49.716Z,100305.19
2023-02-16T12:30:45.359Z,100299.94
2023-02-16T12:33:26.138Z,100298.06
2023-02-16T12:36:08.471Z,100305.03
2023-02-16T12:38:47.238Z,100293.56
2023-02-16T12:41:17.253Z,100291.63
2023-02-16T12:43:52.921Z,100285.56
2023-02-16T12:46:29.687Z,100282.78
2023-02-16T12:48:59.494Z,100278.28
2023-02-16T12:51:41.399Z,100280.72
2023-02-16T12:54:27.363Z,100279.09
2023-02-16T12:57:04.611Z,100276.56
2023-02-16T13:00:09.103Z,100267.75
2023-02-16T13:02:40.583Z,100259.50
2023-02-16T13:05:18.197Z,100258.91
2023-02-16T13:07:49.121Z,100255.19
2023-02-16T13:10:30.743Z,100256.50
2023-02-16T13:13:34.677Z,100250.00
2023-02-16T13:16:12.872Z,100250.19
2023-02-16T13:18:50.586Z,100246.44
2023-02-16T13:21:51.560Z,100244.16
2023-02-16T13:24:51.181Z,100234.13
2023-02-16T13:27:48.830Z,100234.78
2023-02-16T13:30:55.800Z,100230.00
2023-02-16T13:33:51.548Z,100226.91
2023-02-16T13:36:27.425Z,100220.53
2023-02-16T13:39:16.985Z,100221.84
2023-02-16T13:42:02.968Z,100222.41
2023-02-16T13:44:46.111Z,100225.69
2023-02-16T13:47:18.222Z,100215.44
2023-02-16T13:49:46.403Z,100217.22
2023-02-16T13:52:41.850Z,100214.34
2023-02-16T13:55:25.869Z,100216.81
2023-02-16T13:58:14.348Z,100217.47
2023-02-16T14:00:50.999Z,100209.22
2023-02-16T14:03:21.361Z,100209.44
2023-02-16T14:05:56.414Z,100212.53
2023-02-16T14:08:29.106Z,100213.37
2023-02-16T14:10:58.000Z,100214.66
2023-02-16T14:13:45.581Z,100202.47
2023-02-16T14:16:18.617Z,100208.47
2023-02-16T14:18:56.815Z,100212.16
2023-02-16T14:21:40.497Z,100200.78
2023-02-16T14:24:13.641Z,100211.00
2023-02-16T14:26:56.267Z,100210.94
2023-02-16T14:29:31.520Z,100206.78
2023-02-16T14:32:21.418Z,100214.59
2023-02-16T14:34:57.480Z,100203.56
2023-02-16T14:37:59.033Z,100204.00
2023-02-16T14:40:49.826Z,100201.44
2023-02-16T14:43:38.691Z,100195.03
2023-02-16T14:46:18.382Z,100195.12
2023-02-16T14:48:58.325Z,100198.12
2023-02-16T14:51:44.331Z,100193.22
2023-02-16T14:54:37.417Z,100201.69
2023-02-16T14:57:06.973Z,100193.88
2023-02-16T14:59:57.146Z,100198.38
2023-02-16T15:02:25.818Z,100195.94
2023-02-16T15:04:52.977Z,100192.66
2023-02-16T15:07:22.162Z,100191.44
2023-02-16T15:09:57.407Z,100196.97
2023-02-16T15:12:39.388Z,100202.06
2023-02-16T15:15:13.434Z,100197.84
2023-02-16T15:17:45.433Z,100194.69
2023-02-16T15:20:27.717Z,100186.69
2023-02-16T15:22:57.537Z,100190.28
2023-02-16T15:25:32.638Z,100184.88
2023-02-16T15:28:05.911Z,100186.81
2023-02-16T15:30:35.754Z,100189.78
2023-02-16T15:33:13.157Z,100188.63
2023-02-16T15:35:43.394Z,100184.38
2023-02-16T15:38:13.176Z,100189.97
2023-02-16T15:40:40.684Z,100189.44
2023-02-16T15:43:19.933Z,100192.22
2023-02-16T15:45:55.659Z,100187.22
2023-02-16T15:48:31.957Z,100187.50
2023-02-16T15:51:07.081Z,100190.53
2023-02-16T15:53:39.180Z,100188.28
2023-02-16T15:56:28.206Z,100190.22
2023-02-16T15:59:20.451Z,100197.50
2023-02-16T16:01:49.066Z,100199.53
2023-02-16T16:04:23.301Z,100186.75
2023-02-16T16:06:51.901Z,100195.81
2023-02-16T16:09:24.043Z,100195.97
2023-02-16T16:11:53.100Z,100194.41
2023-02-16T16:14:21.661Z,100184.19
2023-02-16T16:16:50.008Z,100190.53
2023-02-16T16:19:38.122Z,100184.56
2023-02-16T16:22:29.738Z,100181.22
2023-02-16T16:24:57.027Z,100182.19
2023-02-16T16:27:36.685Z,100182.41
2023-02-16T16:30:28.088Z,100182.50
2023-02-16T16:33:11.909Z,100180.91
2023-02-16T16:35:45.621Z,100177.50
2023-02-16T16:38:29.067Z,100180.19
2023-02-16T16:40:59.737Z,100183.78
2023-02-16T16:43:33.278Z,100188.22
2023-02-16T16:46:24.835Z,100188.22
2023-02-16T16:49:03.460Z,100186.56
2023-02-16T16:51:33.542Z,100191.00
2023-02-16T16:54:04.179Z,100197.09
2023-02-16T16:56:37.092Z,100190.25
2023-02-16T16:59:04.762Z,100201.69
2023-02-16T17:01:32.396Z,100189.47
2023-02-16T17:04:00.220Z,100190.47
2023-02-16T17:06:28.006Z,100187.91
2023-02-16T17:08:55.301Z,100191.50
2023-02-16T17:11:32.371Z,100188.06
2023-02-16T17:14:09.089Z,100196.03
2023-02-16T17:16:44.916Z,100192.59
2023-02-16T17:19:13.912Z,100191.91
2023-02-16T17:21:41.534Z,100197.19
2023-02-16T17:24:10.221Z,100188.59
2023-02-16T17:26:38.059Z,100186.00
2023-02-16T17:29:06.814Z,100187.91
2023-02-16T17:31:34.622Z,100185.41
2023-02-16T17:34:02.204Z,100188.81
2023-02-16T17:36:29.310Z,100187.19
2023-02-16T17:38:56.440Z,100180.34
2023-02-16T17:41:26.626Z,100188.34
2023-02-16T17:43:54.117Z,100181.62
2023-02-16T17:46:22.728Z,100186.94
2023-02-16T17:48:53.861Z,100176.59
2023-02-16T17:51:24.141Z,100177.50
2023-02-16T17:53:51.783Z,100173.97
2023-02-16T17:56:22.352Z,100174.88
2023-02-16T17:58:49.907Z,100175.94
2023-02-16T18:01:19.562Z,100179.50
2023-02-16T18:03:47.069Z,100176.97
2023-02-16T18:06:16.761Z,100171.81
2023-02-16T18:08:44.744Z,100175.34
2023-02-16T18:11:12.639Z,100181.47
2023-02-16T18:13:40.154Z,100180.59
2023-02-16T18:16:08.437Z,100186.78
2023-02-16T18:18:39.753Z,100179.06
2023-02-16T18:21:07.371Z,100180.81
2023-02-16T18:23:34.573Z,100183.41
2023-02-16T18:26:03.228Z,100185.25
2023-02-16T18:28:32.794Z,100188.78
2023-02-16T18:31:00.792Z,100197.53
2023-02-16T18:33:28.487Z,100194.13
2023-02-16T18:35:57.711Z,100192.41
2023-02-16T18:38:25.118Z,100189.87
2023-02-16T18:40:54.124Z,100189.94
2023-02-16T18:43:22.449Z,100193.44
2023-02-16T18:45:50.064Z,100194.31
2023-02-16T18:48:17.593Z,100195.22
2023-02-16T18:50:44.881Z,100198.75
2023-02-16T18:53:12.047Z,100209.16
2023-02-16T18:55:39.525Z,100204.81
2023-02-16T18:58:08.550Z,100206.59
2023-02-16T19:00:36.959Z,100192.72
2023-02-16T19:03:04.668Z,100202.28
2023-02-16T19:05:33.092Z,100210.13
2023-02-16T19:08:00.208Z,100205.78
2023-02-16T19:10:27.610Z,100212.69
2023-02-16T19:12:54.712Z,100206.56
2023-02-16T19:15:21.865Z,100207.41
2023-02-16T19:17:49.317Z,100207.34
2023-02-16T19:20:21.319Z,100199.44
2023-02-16T19:22:49.332Z,100202.78
2023-02-16T19:25:16.681Z,100194.91
2023-02-16T19:27:46.362Z,100201.75
2023-02-16T19:30:13.888Z,100196.41
2023-02-16T19:32:41.544Z,100198.97
2023-02-16T19:35:10.016Z,100198.84
2023-02-16T19:37:37.447Z,100200.44
2023-02-16T19:40:06.821Z,100200.31
2023-02-16T19:42:34.163Z,100197.78
2023-02-16T19:45:02.804Z,100200.41
2023-02-16T19:47:29.915Z,100205.63
2023-02-16T19:49:57.210Z,100198.66
2023-02-16T19:52:24.575Z,100204.75
2023-02-16T19:54:51.790Z,100200.34
2023-02-16T19:57:19.178Z,100195.91
2023-02-16T19:59:46.629Z,100203.75
2023-02-16T20:02:15.477Z,100202.94
2023-02-16T20:04:44.654Z,100205.44
2023-02-16T20:07:11.751Z,100200.31
2023-02-16T20:09:39.182Z,100207.38
2023-02-16T20:12:07.074Z,100205.59
2023-02-16T20:14:34.196Z,100203.00
2023-02-16T20:17:01.300Z,100206.53
2023-02-16T20:19:28.707Z,100202.13
2023-02-16T20:21:55.841Z,100203.06
2023-02-16T20:24:23.010Z,100201.34
2023-02-16T20:26:51.993Z,100194.44
2023-02-16T20:29:20.781Z,100196.09
2023-02-16T20:31:53.684Z,100195.94
2023-02-16T20:34:21.905Z,100196.81
2023-02-16T20:36:49.034Z,100201.19
2023-02-16T20:39:16.439Z,100195.78
2023-02-16T20:41:44.353Z,100196.66
2023-02-16T20:44:12.235Z,100194.00
2023-02-16T20:46:40.103Z,100201.78
2023-02-16T20:49:07.899Z,100185.19
2023-02-16T20:51:36.033Z,100194.84
2023-02-16T20:54:04.129Z,100187.13
2023-02-16T20:56:31.557Z,100185.47
2023-02-16T20:58:59.013Z,100179.25
2023-02-16T21:01:34.359Z,100185.41
2023-02-16T21:04:01.704Z,100186.34
2023-02-16T21:06:29.511Z,100188.03
2023-02-16T21:08:57.322Z,100180.91
2023-02-16T21:11:25.670Z,100177.44
2023-02-16T21:13:54.504Z,100182.72
2023-02-16T21:16:22.384Z,100181.88
2023-02-16T21:18:50.059Z,100180.16
2023-02-16T21:21:17.633Z,100179.16
2023-02-16T21:23:46.824Z,100180.72
2023-02-16T21:26:14.988Z,100184.94
2023-02-16T21:28:42.134Z,100183.41
2023-02-16T21:31:12.615Z,100182.75
2023-02-16T21:33:40.576Z,100182.97
2023-02-16T21:36:10.807Z,100184.06
2023-02-16T21:38:39.104Z,100188.69
2023-02-16T21:41:24.488Z,100180.91
2023-02-16T21:44:02.233Z,100182.56
2023-02-16T21:46:35.059Z,100177.94
2023-02-16T21:49:02.531Z,100170.75
2023-02-16T21:51:33.714Z,100178.47
2023-02-16T21:54:01.408Z,100178.44
2023-02-16T21:56:40.371Z,100180.94
2023-02-16T21:59:10.729Z,100173.03
2023-02-16T22:01:46.557Z,100172.94
2023-02-16T22:04:21.720Z,100173.00
2023-02-16T22:06:51.001Z,100167.69
2023-02-16T22:09:21.270Z,100165.94
2023-02-16T22:11:49.164Z,100164.31
2023-02-16T22:14:16.833Z,100168.72
2023-02-16T22:16:45.857Z,100166.09
2023-02-16T22:19:15.540Z,100161.81
2023-02-16T22:21:46.060Z,100168.84
2023-02-16T22:24:14.855Z,100157.41
2023-02-16T22:26:42.061Z,100167.13
2023-02-16T22:29:09.623Z,100166.47
2023-02-16T22:31:37.309Z,100159.37
2023-02-16T22:34:06.739Z,100164.72
2023-02-16T22:36:35.690Z,100153.44
2023-02-16T22:39:04.218Z,100150.72
2023-02-16T22:41:31.388Z,100158.47
2023-02-16T22:44:01.624Z,100154.19
2023-02-16T22:46:29.639Z,100149.03
2023-02-16T22:48:59.998Z,100152.72
2023-02-16T22:51:29.313Z,100145.81
2023-02-16T22:54:01.094Z,100145.87
2023-02-16T22:56:29.768Z,100135.59
2023-02-16T22:58:58.501Z,100140.84
2023-02-16T23:01:27.797Z,100146.97
2023-02-16T23:03:57.795Z,100141.78
2023-02-16T23:06:28.704Z,100150.41
2023-02-16T23:08:59.107Z,100144.28
2023-02-16T23:11:27.771Z,100153.03
2023-02-16T23:13:55.321Z,100148.69
2023-02-16T23:16:24.732Z,100146.97
2023-02-16T23:18:52.561Z,100134.84
2023-02-16T23:21:25.599Z,100138.31
2023-02-16T23:23:53.924Z,100131.44
2023-02-16T23:26:23.278Z,100133.91
2023-02-16T23:28:53.365Z,100140.88
2023-02-16T23:31:21.084Z,100141.59
2023-02-16T23:33:48.618Z,100133.78
2023-02-16T23:36:15.766Z,100132.97
2023-02-16T23:38:43.217Z,100131.87
2023-02-16T23:41:14.924Z,100131.97
2023-02-16T23:43:43.215Z,100134.53
2023-02-16T23:46:11.439Z,100137.22
2023-02-16T23:48:38.743Z,100139.72
2023-02-16T23:51:06.302Z,100142.19
2023-02-16T23:53:33.960Z,100143.00
2023-02-16T23:56:02.145Z,100143.00
2023-02-16T23:58:32.218Z,100142.09
